Time;durP1;ratioP1;P1;durP2;ratioP2;P2;SDS_P1;SDS_P2;PMS_P1;PMS_P2;Temp;Humidity;BMP_temperature;BMP_pressure;BME280_temperature;BME280_humidity;BME280_pressure;Samples;Min_cycle;Max_cycle;Signal;HPM_P1;HPM_P2
2023/07/16 00:00:26;;;;;;;8.63;4.90;;;19.00;99.90;;;;;;5114132;28;20204;-75
2023/07/16 00:02:51;;;;;;;6.00;4.97;;;19.00;99.90;;;;;;5113651;28;20222;-76
2023/07/16 00:05:17;;;;;;;8.70;5.17;;;19.00;99.90;;;;;;5095966;28;20173;-77
2023/07/16 00:07:43;;;;;;;6.17;4.00;;;18.90;99.90;;;;;;5116327;28;20648;-76
2023/07/16 00:10:09;;;;;;;6.33;4.20;;;18.90;99.90;;;;;;5114933;28;20204;-76
2023/07/16 00:12:34;;;;;;;5.30;4.30;;;18.90;99.90;;;;;;5095703;28;20515;-76
2023/07/16 00:15:00;;;;;;;5.97;4.40;;;18.80;99.90;;;;;;5098399;28;20165;-76
2023/07/16 00:17:25;;;;;;;5.33;4.83;;;18.80;99.90;;;;;;5116764;28;20161;-76
2023/07/16 00:19:51;;;;;;;7.10;4.70;;;18.80;99.90;;;;;;5096890;28;20273;-76
2023/07/16 00:22:17;;;;;;;8.10;4.70;;;18.80;99.90;;;;;;5096037;28;20527;-77
2023/07/16 00:24:42;;;;;;;8.03;4.93;;;18.70;99.90;;;;;;5096166;28;20321;-76
2023/07/16 00:27:08;;;;;;;6.43;4.33;;;18.70;99.90;;;;;;5095531;28;20256;-76
2023/07/16 00:29:33;;;;;;;4.57;4.17;;;18.60;99.90;;;;;;5075899;28;20213;-76
2023/07/16 00:31:59;;;;;;;6.97;4.30;;;18.60;99.90;;;;;;5093858;28;20191;-76
2023/07/16 00:34:24;;;;;;;6.00;4.23;;;18.60;99.90;;;;;;5108197;28;20188;-76
2023/07/16 00:36:50;;;;;;;5.93;4.77;;;18.60;99.90;;;;;;5116126;28;20169;-76
2023/07/16 00:39:16;;;;;;;5.50;4.97;;;18.60;99.90;;;;;;5096305;28;20694;-76
2023/07/16 00:41:41;;;;;;;5.23;4.60;;;18.50;99.90;;;;;;5113422;28;20173;-76
2023/07/16 00:44:07;;;;;;;13.27;5.00;;;18.50;99.90;;;;;;5113511;28;20566;-76
2023/07/16 00:46:33;;;;;;;5.63;4.77;;;18.40;99.90;;;;;;5094831;28;20181;-76
2023/07/16 00:48:59;;;;;;;5.23;4.50;;;18.40;99.90;;;;;;5101800;28;20735;-77
2023/07/16 00:51:25;;;;;;;10.23;5.23;;;18.30;99.90;;;;;;5092823;28;20177;-76
2023/07/16 00:53:51;;;;;;;4.97;4.37;;;18.30;99.90;;;;;;5074255;28;20463;-75
2023/07/16 00:56:18;;;;;;;7.07;4.83;;;18.30;99.90;;;;;;5092342;28;20542;-75
2023/07/16 00:58:44;;;;;;;8.73;5.47;;;18.30;99.90;;;;;;5092225;28;20180;-75
2023/07/16 01:01:09;;;;;;;6.67;5.10;;;18.20;99.90;;;;;;5092656;28;20197;-74
2023/07/16 01:03:36;;;;;;;6.33;5.43;;;18.20;99.90;;;;;;5091797;28;20275;-74
2023/07/16 01:06:08;;;;;;;5.40;5.00;;;18.20;99.90;;;;;;5073915;28;20550;-75
2023/07/16 01:09:02;;;;;;;5.70;5.30;;;18.10;99.90;;;;;;5073778;28;20184;-75
2023/07/16 01:11:29;;;;;;;11.57;5.37;;;18.10;99.90;;;;;;5092714;28;20169;-74
2023/07/16 01:13:56;;;;;;;6.63;4.60;;;18.00;99.90;;;;;;5091754;28;20197;-74
2023/07/16 01:16:23;;;;;;;8.10;5.87;;;18.00;99.90;;;;;;5092248;28;20609;-74
2023/07/16 01:18:49;;;;;;;7.40;4.87;;;18.00;99.90;;;;;;5091809;28;20193;-74
2023/07/16 01:21:16;;;;;;;8.13;5.00;;;18.00;99.90;;;;;;5092118;28;20216;-74
2023/07/16 01:24:02;;;;;;;5.77;5.27;;;18.00;99.90;;;;;;5091902;28;20177;-74
2023/07/16 01:27:02;;;;;;;6.13;5.53;;;18.00;99.90;;;;;;5092135;28;20549;-74
2023/07/16 01:29:38;;;;;;;5.27;4.80;;;18.00;99.90;;;;;;5091900;28;20304;-74
2023/07/16 01:32:06;;;;;;;8.30;4.90;;;18.00;99.90;;;;;;5091898;28;20244;-75
2023/07/16 01:34:35;;;;;;;7.37;4.77;;;18.00;99.90;;;;;;5091673;28;20161;-74
2023/07/16 01:37:02;;;;;;;7.30;5.07;;;18.00;99.90;;;;;;5091897;28;20169;-76
2023/07/16 01:39:28;;;;;;;5.77;5.20;;;18.00;99.90;;;;;;5073563;28;20231;-76
2023/07/16 01:41:54;;;;;;;7.90;5.27;;;17.90;99.90;;;;;;5073930;28;20208;-76
2023/07/16 01:44:19;;;;;;;9.27;4.33;;;17.90;99.90;;;;;;5096446;28;20177;-75
2023/07/16 01:47:08;;;;;;;4.60;4.30;;;17.90;99.90;;;;;;5111130;28;20172;-76
2023/07/16 01:49:34;;;;;;;4.80;4.40;;;17.90;99.90;;;;;;5112011;28;20322;-75
2023/07/16 01:52:03;;;;;;;5.17;4.77;;;17.90;99.90;;;;;;5112271;28;20894;-74
2023/07/16 01:54:29;;;;;;;4.93;4.43;;;17.80;99.90;;;;;;5111722;28;20609;-76
2023/07/16 01:56:55;;;;;;;4.70;4.27;;;17.80;99.90;;;;;;5092188;28;20237;-76
2023/07/16 01:59:21;;;;;;;4.90;4.40;;;17.80;99.90;;;;;;5091230;28;20193;-74
2023/07/16 02:01:46;;;;;;;7.63;4.60;;;17.80;99.90;;;;;;5091561;28;20181;-76
2023/07/16 02:04:12;;;;;;;7.43;5.00;;;17.70;99.90;;;;;;5091463;28;20238;-76
2023/07/16 02:06:37;;;;;;;4.50;4.20;;;17.70;99.90;;;;;;5091513;28;20209;-76
2023/07/16 02:09:03;;;;;;;5.37;4.87;;;17.70;99.90;;;;;;5091256;28;20216;-74
2023/07/16 02:11:29;;;;;;;6.17;4.33;;;17.60;99.90;;;;;;5074547;28;20188;-76
2023/07/16 02:13:54;;;;;;;4.90;4.30;;;17.60;99.90;;;;;;5092138;28;20181;-75
2023/07/16 02:16:20;;;;;;;4.57;4.17;;;17.60;99.90;;;;;;5091616;28;20169;-75
2023/07/16 02:18:45;;;;;;;5.67;4.00;;;17.60;99.90;;;;;;5091295;28;20173;-74
2023/07/16 02:21:11;;;;;;;10.00;4.23;;;17.60;99.90;;;;;;5091382;28;20166;-74
2023/07/16 02:23:37;;;;;;;4.73;4.23;;;17.60;99.90;;;;;;5091125;28;20182;-76
2023/07/16 02:26:02;;;;;;;6.20;4.50;;;17.60;99.90;;;;;;5095223;28;20184;-76
2023/07/16 02:28:28;;;;;;;9.13;4.47;;;17.60;99.90;;;;;;5093442;28;20212;-75
2023/07/16 02:30:54;;;;;;;4.83;4.10;;;17.60;99.90;;;;;;5111326;28;20723;-76
2023/07/16 02:33:19;;;;;;;4.13;3.70;;;17.60;99.90;;;;;;5093008;28;20184;-74
2023/07/16 02:35:49;;;;;;;4.57;4.17;;;17.60;99.90;;;;;;5093205;28;20716;-75
2023/07/16 02:38:15;;;;;;;8.53;3.70;;;17.60;99.90;;;;;;5104396;28;20252;-70
2023/07/16 02:40:48;;;;;;;6.67;3.70;;;17.60;99.90;;;;;;5090512;28;20194;-76
2023/07/16 02:43:14;;;;;;;8.37;4.10;;;17.60;99.90;;;;;;5090851;28;20212;-76
2023/07/16 02:45:40;;;;;;;5.33;4.13;;;17.60;99.90;;;;;;5091083;28;20169;-74
2023/07/16 02:48:07;;;;;;;5.70;3.40;;;17.50;99.90;;;;;;5091076;28;20185;-75
2023/07/16 02:50:38;;;;;;;9.43;4.20;;;17.50;99.90;;;;;;5072912;28;20224;-76
2023/07/16 02:53:06;;;;;;;4.57;4.23;;;17.50;99.90;;;;;;5090874;28;20201;-74
2023/07/16 02:55:32;;;;;;;4.70;4.20;;;17.50;99.90;;;;;;5091074;28;20260;-76
2023/07/16 02:57:58;;;;;;;5.77;4.60;;;17.50;99.90;;;;;;5074621;28;20300;-75
2023/07/16 03:00:23;;;;;;;4.70;4.30;;;17.50;99.90;;;;;;5094893;28;20193;-76
2023/07/16 03:02:49;;;;;;;4.27;3.97;;;17.50;99.90;;;;;;5094380;28;20226;-76
2023/07/16 03:05:18;;;;;;;4.33;3.93;;;17.50;99.90;;;;;;5094772;28;20196;-75
2023/07/16 03:07:44;;;;;;;6.53;3.90;;;17.50;99.90;;;;;;5113095;28;20267;-75
2023/07/16 03:10:10;;;;;;;5.67;3.70;;;17.40;99.90;;;;;;5114854;28;20345;-76
2023/07/16 03:12:36;;;;;;;6.00;4.43;;;17.40;99.90;;;;;;5114791;28;20175;-75
2023/07/16 03:15:01;;;;;;;5.93;3.93;;;17.40;99.90;;;;;;5114749;28;20180;-76
2023/07/16 03:17:27;;;;;;;4.83;4.50;;;17.30;99.90;;;;;;5115102;28;20557;-76
2023/07/16 03:19:52;;;;;;;6.37;4.30;;;17.30;99.90;;;;;;5114910;28;20701;-77
2023/07/16 03:22:18;;;;;;;6.10;4.30;;;17.30;99.90;;;;;;5096770;28;20530;-77
2023/07/16 03:24:44;;;;;;;6.17;3.93;;;17.30;99.90;;;;;;5114757;28;20639;-76
2023/07/16 03:27:09;;;;;;;4.47;3.70;;;17.20;99.90;;;;;;5096086;28;20207;-74
2023/07/16 03:29:35;;;;;;;4.00;3.70;;;17.20;99.90;;;;;;5114059;28;20200;-76
2023/07/16 03:32:01;;;;;;;4.20;3.90;;;17.20;99.90;;;;;;5096580;28;20172;-76
2023/07/16 03:34:26;;;;;;;5.33;4.50;;;17.20;99.90;;;;;;5106185;28;20216;-77
2023/07/16 03:36:52;;;;;;;8.23;5.17;;;17.10;99.90;;;;;;5093867;28;20749;-76
2023/07/16 03:39:17;;;;;;;4.30;3.90;;;17.10;99.90;;;;;;5093932;28;20256;-76
2023/07/16 03:41:43;;;;;;;7.07;4.03;;;17.10;99.90;;;;;;5093931;28;20174;-76
2023/07/16 03:44:09;;;;;;;5.20;4.23;;;17.00;99.90;;;;;;5093600;28;20177;-77
2023/07/16 03:46:35;;;;;;;4.67;4.23;;;16.90;99.90;;;;;;5094029;28;20174;-77
2023/07/16 03:49:01;;;;;;;5.80;4.00;;;16.90;99.90;;;;;;5093661;28;20215;-77
2023/07/16 03:51:26;;;;;;;9.53;4.73;;;16.80;99.90;;;;;;5093850;28;20203;-76
2023/07/16 03:53:52;;;;;;;5.63;4.40;;;16.80;99.90;;;;;;5093518;28;20312;-76
2023/07/16 03:56:17;;;;;;;5.47;4.07;;;16.70;99.90;;;;;;5093982;28;20154;-77
2023/07/16 03:58:43;;;;;;;8.63;4.77;;;16.70;99.90;;;;;;5075584;28;20639;-76
2023/07/16 04:01:09;;;;;;;7.90;3.70;;;16.70;99.90;;;;;;5091698;28;20697;-76
2023/07/16 04:03:35;;;;;;;8.20;4.37;;;16.60;99.90;;;;;;5113753;28;20173;-76
2023/07/16 04:06:03;;;;;;;9.43;4.50;;;16.60;99.90;;;;;;5095662;28;20176;-77
2023/07/16 04:08:28;;;;;;;8.47;4.70;;;16.60;99.90;;;;;;5113787;28;20164;-77
2023/07/16 04:10:54;;;;;;;7.37;4.57;;;16.60;99.90;;;;;;5113354;28;20208;-75
2023/07/16 04:13:20;;;;;;;10.37;4.60;;;16.60;99.90;;;;;;5113890;28;20161;-77
2023/07/16 04:15:45;;;;;;;4.30;4.00;;;16.60;99.90;;;;;;5115435;28;20248;-77
2023/07/16 04:18:11;;;;;;;5.93;4.50;;;16.60;99.90;;;;;;5114131;28;20169;-77
2023/07/16 04:20:36;;;;;;;5.30;4.10;;;16.60;99.90;;;;;;5113612;28;20197;-75
2023/07/16 04:23:02;;;;;;;6.97;4.20;;;16.60;99.90;;;;;;5095523;28;20667;-77
2023/07/16 04:25:27;;;;;;;5.17;4.73;;;16.60;99.90;;;;;;5114479;28;20173;-77
2023/07/16 04:27:53;;;;;;;4.90;4.40;;;16.60;99.90;;;;;;5109174;28;20265;-76
2023/07/16 04:30:19;;;;;;;4.63;4.23;;;16.60;99.90;;;;;;5093249;28;20244;-75
2023/07/16 04:32:44;;;;;;;5.57;4.70;;;16.60;99.90;;;;;;5092890;28;20633;-77
2023/07/16 04:35:10;;;;;;;6.90;4.60;;;16.60;99.90;;;;;;5093122;28;20173;-76
2023/07/16 04:37:35;;;;;;;4.40;3.90;;;16.70;99.90;;;;;;5074801;28;20184;-76
2023/07/16 04:40:01;;;;;;;8.90;5.47;;;16.70;99.90;;;;;;5092908;28;20254;-76
2023/07/16 04:42:27;;;;;;;10.87;5.10;;;16.80;99.90;;;;;;5092721;28;20271;-77
2023/07/16 04:44:52;;;;;;;8.43;4.97;;;16.90;99.90;;;;;;5092609;28;20647;-77
2023/07/16 04:47:18;;;;;;;4.27;3.97;;;17.00;99.90;;;;;;5093394;28;20640;-76
2023/07/16 04:49:43;;;;;;;5.00;4.60;;;17.10;99.90;;;;;;5092897;28;20331;-76
2023/07/16 04:52:09;;;;;;;6.83;4.33;;;17.20;99.90;;;;;;5092947;28;20174;-76
2023/07/16 04:54:36;;;;;;;6.27;5.63;;;17.30;99.90;;;;;;5092960;28;20172;-76
2023/07/16 04:57:03;;;;;;;6.03;4.60;;;17.40;99.90;;;;;;5106918;28;20663;-76
2023/07/16 04:59:28;;;;;;;5.63;5.00;;;17.50;99.90;;;;;;5112938;28;20185;-76
2023/07/16 05:01:54;;;;;;;5.27;4.23;;;17.70;99.90;;;;;;5094910;28;20181;-77
2023/07/16 05:04:19;;;;;;;6.03;4.40;;;17.90;99.90;;;;;;5113418;28;20168;-77
2023/07/16 05:06:45;;;;;;;5.23;4.70;;;18.20;99.90;;;;;;5113332;28;20635;-76
2023/07/16 05:09:10;;;;;;;7.07;5.33;;;18.40;99.90;;;;;;5112621;28;20261;-78
2023/07/16 05:11:38;;;;;;;8.37;4.90;;;18.50;99.90;;;;;;5112795;28;20161;-76
2023/07/16 05:14:03;;;;;;;5.93;5.40;;;18.70;99.90;;;;;;5094312;28;20176;-77
2023/07/16 05:16:29;;;;;;;4.97;4.23;;;18.70;99.90;;;;;;5094839;28;20171;-77
2023/07/16 05:18:54;;;;;;;5.27;4.40;;;18.80;99.90;;;;;;5112199;28;20201;-76
2023/07/16 05:21:20;;;;;;;6.00;4.50;;;18.90;99.90;;;;;;5112707;28;20177;-76
2023/07/16 05:23:46;;;;;;;5.30;4.27;;;19.10;99.90;;;;;;5108367;28;20264;-77
2023/07/16 05:26:11;;;;;;;5.63;4.60;;;19.20;99.90;;;;;;5092401;28;20177;-76
2023/07/16 05:28:37;;;;;;;5.30;4.53;;;19.20;99.90;;;;;;5073931;28;20169;-76
2023/07/16 05:31:03;;;;;;;4.43;4.03;;;19.20;99.90;;;;;;5092207;28;20246;-76
2023/07/16 05:33:29;;;;;;;10.40;4.90;;;19.20;99.90;;;;;;5073608;28;20642;-77
2023/07/16 05:35:55;;;;;;;7.83;5.00;;;19.10;99.90;;;;;;5092193;28;20211;-73
2023/07/16 05:38:21;;;;;;;6.27;5.10;;;19.10;99.90;;;;;;5092155;28;20169;-75
2023/07/16 05:40:47;;;;;;;6.97;6.27;;;19.10;99.90;;;;;;5091729;28;20251;-76
2023/07/16 05:43:14;;;;;;;9.00;6.13;;;19.20;99.90;;;;;;5091441;28;20759;-77
2023/07/16 05:45:39;;;;;;;7.90;5.17;;;19.40;99.90;;;;;;5091670;28;20195;-75
2023/07/16 05:48:05;;;;;;;6.10;4.72;;;19.70;99.90;;;;;;5091799;28;20173;-75
2023/07/16 05:50:31;;;;;;;9.63;4.83;;;20.10;99.90;;;;;;5104523;28;20208;-76
2023/07/16 05:52:56;;;;;;;8.75;4.57;;;20.40;99.90;;;;;;5094098;28;20173;-77
2023/07/16 05:55:22;;;;;;;6.40;4.88;;;20.60;99.90;;;;;;5112228;28;20179;-77
2023/07/16 05:57:47;;;;;;;7.90;7.05;;;20.80;99.90;;;;;;5112050;28;20234;-77
2023/07/16 06:00:13;;;;;;;7.00;4.90;;;21.10;99.90;;;;;;5111971;28;20659;-76
2023/07/16 06:02:39;;;;;;;9.27;5.13;;;21.30;99.90;;;;;;5111661;28;20179;-76
2023/07/16 06:05:06;;;;;;;5.80;4.70;;;21.40;99.90;;;;;;5104100;28;20189;-76
2023/07/16 06:07:32;;;;;;;6.10;4.70;;;21.50;99.90;;;;;;5073303;28;20173;-76
2023/07/16 06:09:58;;;;;;;8.13;5.28;;;21.50;99.90;;;;;;5072013;28;20274;-76
2023/07/16 06:12:24;;;;;;;6.22;4.70;;;21.70;99.90;;;;;;5090422;28;20174;-75
2023/07/16 06:14:50;;;;;;;6.78;4.72;;;22.00;99.90;;;;;;5090106;28;20169;-75
2023/07/16 06:17:15;;;;;;;10.32;4.97;;;22.20;99.90;;;;;;5104249;28;20200;-75
2023/07/16 06:19:41;;;;;;;8.80;4.70;;;22.50;99.90;;;;;;5111793;28;20223;-76
2023/07/16 06:22:08;;;;;;;8.95;5.57;;;22.60;99.90;;;;;;5112204;28;20181;-76
2023/07/16 06:24:34;;;;;;;8.00;4.32;;;22.80;99.90;;;;;;5112081;28;20264;-74
2023/07/16 06:27:00;;;;;;;9.52;4.47;;;22.70;99.90;;;;;;5111526;28;20252;-77
2023/07/16 06:29:26;;;;;;;7.25;6.20;;;22.50;99.90;;;;;;5111577;28;20296;-75
2023/07/16 06:31:58;;;;;;;6.75;4.40;;;22.20;99.90;;;;;;5093238;28;20659;-75
2023/07/16 06:34:24;;;;;;;5.22;4.72;;;22.10;99.90;;;;;;5115543;28;20165;-75
2023/07/16 06:36:50;;;;;;;7.88;5.20;;;22.10;99.90;;;;;;5115455;28;20658;-75
2023/07/16 06:39:16;;;;;;;8.57;4.80;;;22.20;99.90;;;;;;5115143;28;20188;-76
2023/07/16 06:41:41;;;;;;;6.07;4.40;;;22.10;99.90;;;;;;5115261;28;20188;-75
2023/07/16 06:44:07;;;;;;;7.40;4.85;;;22.30;99.90;;;;;;5093530;28;20666;-75
2023/07/16 06:46:32;;;;;;;7.75;5.60;;;22.30;99.90;;;;;;5095164;28;20687;-74
2023/07/16 06:48:58;;;;;;;7.88;4.68;;;22.50;99.90;;;;;;5094317;28;20197;-76
2023/07/16 06:51:24;;;;;;;6.55;4.65;;;22.60;99.90;;;;;;5094782;28;20162;-75
2023/07/16 06:53:49;;;;;;;6.55;5.60;;;22.80;99.90;;;;;;5094208;28;20176;-75
2023/07/16 06:56:15;;;;;;;7.88;5.07;;;22.90;99.90;;;;;;5094778;28;20161;-76
2023/07/16 06:58:41;;;;;;;7.30;4.93;;;;;;;;;;5083210;28;20670;-75
2023/07/16 07:01:07;;;;;;;8.60;5.35;;;23.10;99.90;;;;;;5115097;28;20169;-74
2023/07/16 07:03:35;;;;;;;6.10;4.97;;;23.20;99.90;;;;;;5114667;28;20181;-76
2023/07/16 07:06:04;;;;;;;6.82;4.88;;;23.30;99.90;;;;;;5115115;28;20165;-75
2023/07/16 07:08:30;;;;;;;7.13;4.95;;;23.30;99.90;;;;;;5114946;28;20185;-75
2023/07/16 07:10:55;;;;;;;9.68;5.25;;;23.40;99.90;;;;;;5113879;28;20215;-75
2023/07/16 07:13:21;;;;;;;6.38;5.18;;;23.60;99.90;;;;;;5114463;28;20251;-76
2023/07/16 07:15:47;;;;;;;8.20;5.82;;;23.80;99.90;;;;;;5096212;28;20176;-74
2023/07/16 07:18:14;;;;;;;5.60;4.88;;;23.90;99.90;;;;;;5114925;28;20196;-73
2023/07/16 07:20:40;;;;;;;7.05;4.65;;;24.20;99.90;;;;;;5114635;28;20728;-75
2023/07/16 07:23:06;;;;;;;6.63;5.13;;;24.20;99.90;;;;;;5114105;28;20177;-77
2023/07/16 07:25:31;;;;;;;7.03;5.03;;;24.30;99.90;;;;;;5114570;28;20169;-73
2023/07/16 07:27:57;;;;;;;8.20;5.10;;;24.20;99.90;;;;;;5114236;28;20165;-72
2023/07/16 07:30:22;;;;;;;8.27;5.10;;;24.10;99.90;;;;;;5114177;28;20205;-73
2023/07/16 07:32:48;;;;;;;5.68;5.00;;;24.00;99.90;;;;;;5114072;28;20680;-70
2023/07/16 07:35:14;;;;;;;8.98;5.07;;;23.80;99.90;;;;;;5114374;28;20188;-76
2023/07/16 07:37:39;;;;;;;9.80;4.55;;;23.80;99.90;;;;;;5114263;28;20257;-73
2023/07/16 07:40:05;;;;;;;4.95;4.55;;;24.10;99.90;;;;;;5112414;28;20560;-74
2023/07/16 07:42:31;;;;;;;7.82;4.75;;;24.40;99.90;;;;;;5114141;28;20715;-72
2023/07/16 07:44:57;;;;;;;5.47;4.97;;;24.40;99.90;;;;;;5112807;28;20172;-71
2023/07/16 07:47:22;;;;;;;8.23;4.60;;;24.40;99.90;;;;;;5114270;28;20191;-74
2023/07/16 07:49:48;;;;;;;8.05;4.90;;;24.20;99.90;;;;;;5114251;28;20205;-73
2023/07/16 07:52:13;;;;;;;6.35;4.60;;;24.00;99.90;;;;;;5114142;28;20165;-73
2023/07/16 07:54:39;;;;;;;6.50;4.97;;;24.20;99.90;;;;;;5113920;28;20196;-75
2023/07/16 07:57:05;;;;;;;6.75;5.47;;;24.40;99.90;;;;;;5113888;28;20509;-74
2023/07/16 07:59:31;;;;;;;7.65;4.55;;;24.60;99.90;;;;;;5113903;28;20541;-75
2023/07/16 08:01:58;;;;;;;6.43;4.93;;;24.60;99.90;;;;;;5113880;28;20179;-74
2023/07/16 08:04:24;;;;;;;8.38;5.65;;;24.80;99.90;;;;;;5113737;28;20650;-71
2023/07/16 08:06:51;;;;;;;4.88;4.15;;;24.90;99.90;;;;;;5105052;28;20508;-75
2023/07/16 08:09:17;;;;;;;5.72;5.15;;;24.60;99.90;;;;;;5099524;28;20571;-72
2023/07/16 08:11:42;;;;;;;5.35;4.50;;;24.70;99.90;;;;;;5113532;28;20592;-73
2023/07/16 08:14:08;;;;;;;9.10;4.63;;;24.40;99.90;;;;;;5096324;28;20264;-73
2023/07/16 08:16:34;;;;;;;4.60;4.18;;;24.50;99.90;;;;;;5093278;28;20212;-72
2023/07/16 08:18:59;;;;;;;6.43;5.07;;;24.60;99.90;;;;;;5092837;28;20185;-71
2023/07/16 08:21:25;;;;;;;6.10;4.35;;;24.70;99.90;;;;;;5093123;28;20176;-73
2023/07/16 08:23:51;;;;;;;5.28;4.43;;;24.80;99.90;;;;;;5092699;28;20185;-74
2023/07/16 08:26:17;;;;;;;4.90;4.43;;;24.90;99.90;;;;;;5092706;28;20173;-73
2023/07/16 08:28:42;;;;;;;6.90;6.30;;;25.20;99.90;;;;;;5092894;28;20177;-72
2023/07/16 08:31:11;;;;;;;4.30;3.92;;;25.40;99.90;;;;;;5093086;28;20166;-72
2023/07/16 08:33:37;;;;;;;7.43;5.78;;;25.20;99.90;;;;;;5092483;28;20219;-73
2023/07/16 08:36:02;;;;;;;5.65;4.82;;;25.10;99.90;;;;;;5111352;28;20667;-75
2023/07/16 08:38:28;;;;;;;6.72;4.57;;;25.40;99.90;;;;;;5112961;28;20180;-74
2023/07/16 08:40:53;;;;;;;4.85;4.43;;;25.70;99.90;;;;;;5112769;28;20288;-73
2023/07/16 08:43:20;;;;;;;6.07;5.30;;;25.60;99.90;;;;;;5112732;28;20177;-74
2023/07/16 08:45:48;;;;;;;5.50;4.35;;;26.10;99.90;;;;;;5112583;28;20256;-75
2023/07/16 08:48:14;;;;;;;4.82;4.40;;;26.40;99.90;;;;;;5113119;28;20172;-74
2023/07/16 08:50:42;;;;;;;8.13;4.35;;;26.30;99.90;;;;;;5112847;28;20219;-72
2023/07/16 08:53:08;;;;;;;7.50;4.15;;;26.40;99.90;;;;;;5112754;28;20173;-74
2023/07/16 08:55:38;;;;;;;5.90;4.25;;;26.20;99.90;;;;;;5112483;28;20171;-73
2023/07/16 08:58:04;;;;;;;6.35;5.75;;;25.90;99.90;;;;;;5112836;28;20197;-73
2023/07/16 09:00:30;;;;;;;5.20;4.70;;;25.70;99.90;;;;;;5112921;28;20586;-74
2023/07/16 09:02:56;;;;;;;4.72;4.13;;;25.90;99.90;;;;;;5103424;28;20165;-73
2023/07/16 09:05:22;;;;;;;4.65;4.22;;;26.10;99.90;;;;;;5092217;28;20186;-73
2023/07/16 09:07:49;;;;;;;5.40;4.20;;;26.10;99.90;;;;;;5092201;28;20569;-74
2023/07/16 09:10:14;;;;;;;7.18;4.15;;;26.30;99.90;;;;;;5091940;28;20284;-72
2023/07/16 09:12:44;;;;;;;4.75;4.25;;;26.60;99.90;;;;;;5098310;28;20259;-72
2023/07/16 09:15:11;;;;;;;5.38;4.20;;;26.70;99.90;;;;;;5094215;28;20168;-73
2023/07/16 09:17:38;;;;;;;5.00;4.20;;;26.60;99.90;;;;;;5094214;28;20618;-73
2023/07/16 09:20:05;;;;;;;5.90;5.07;;;26.80;99.90;;;;;;5112282;28;20200;-75
2023/07/16 09:22:31;;;;;;;4.90;4.35;;;26.60;99.90;;;;;;5106522;28;20177;-75
2023/07/16 09:24:57;;;;;;;5.47;4.93;;;26.70;99.90;;;;;;5112307;28;20180;-73
2023/07/16 09:27:28;;;;;;;6.82;4.68;;;26.70;99.90;;;;;;5112275;28;20266;-73
2023/07/16 09:29:54;;;;;;;4.47;3.78;;;26.90;99.90;;;;;;5092170;28;20200;-74
2023/07/16 09:32:20;;;;;;;5.70;4.60;;;27.00;99.90;;;;;;5111965;28;20168;-74
2023/07/16 09:34:49;;;;;;;5.60;4.18;;;26.90;99.90;;;;;;5093833;28;20259;-74
2023/07/16 09:37:17;;;;;;;3.83;3.47;;;26.80;99.90;;;;;;5112016;28;20666;-71
2023/07/16 09:39:46;;;;;;;5.72;4.18;;;27.00;99.90;;;;;;5111928;28;20317;-74
2023/07/16 09:42:13;;;;;;;6.85;3.33;;;27.30;99.90;;;;;;5112123;28;20247;-74
2023/07/16 09:44:41;;;;;;;4.28;3.88;;;27.60;99.90;;;;;;5111922;28;20516;-73
2023/07/16 09:47:07;;;;;;;5.80;5.20;;;28.00;99.90;;;;;;5111853;28;20648;-71
2023/07/16 09:49:32;;;;;;;4.35;3.95;;;27.90;99.90;;;;;;5111640;28;20251;-71
2023/07/16 09:51:59;;;;;;;5.30;4.05;;;27.70;99.90;;;;;;5111692;28;20180;-72
2023/07/16 09:54:27;;;;;;;4.25;3.85;;;27.60;99.90;;;;;;5111480;28;20160;-72
2023/07/16 09:56:59;;;;;;;5.20;4.00;;;27.30;99.90;;;;;;5101660;28;20246;-72
2023/07/16 09:59:28;;;;;;;6.25;4.10;;;27.00;99.90;;;;;;5091530;28;20610;-73
2023/07/16 10:01:56;;;;;;;6.53;3.55;;;27.20;99.90;;;;;;5091257;28;20248;-73
2023/07/16 10:04:22;;;;;;;4.70;4.20;;;27.60;99.90;;;;;;5073055;28;20185;-71
2023/07/16 10:06:54;;;;;;;4.28;3.38;;;27.60;99.90;;;;;;5102143;28;20180;-73
2023/07/16 10:09:41;;;;;;;3.83;2.90;;;27.30;99.90;;;;;;5111419;28;20679;-72
2023/07/16 10:12:15;;;;;;;4.78;4.38;;;27.20;99.90;;;;;;5093178;28;20177;-74
2023/07/16 10:14:41;;;;;;;8.68;4.60;;;27.20;99.90;;;;;;5111640;28;20195;-72
2023/07/16 10:17:06;;;;;;;4.20;3.45;;;27.00;99.90;;;;;;5110973;28;20580;-74
2023/07/16 10:19:45;;;;;;;4.72;4.00;;;26.80;99.90;;;;;;5111607;28;20193;-74
2023/07/16 10:22:11;;;;;;;4.45;3.60;;;27.30;99.90;;;;;;5111875;28;20515;-74
2023/07/16 10:24:39;;;;;;;4.28;3.88;;;27.50;99.90;;;;;;5103679;28;20191;-74
2023/07/16 10:27:05;;;;;;;3.88;3.50;;;27.40;99.90;;;;;;5091312;28;20169;-73
2023/07/16 10:29:30;;;;;;;4.63;3.50;;;27.70;99.90;;;;;;5091118;28;20201;-72
2023/07/16 10:32:01;;;;;;;3.67;3.38;;;28.10;99.90;;;;;;5072826;28;20628;-72
2023/07/16 10:34:27;;;;;;;4.13;3.72;;;28.40;99.90;;;;;;5091055;28;20219;-73
2023/07/16 10:36:52;;;;;;;3.95;3.58;;;28.10;99.90;;;;;;5091241;28;20166;-75
2023/07/16 10:39:18;;;;;;;4.28;3.88;;;27.80;99.90;;;;;;5091106;28;20189;-73
2023/07/16 10:41:44;;;;;;;4.75;4.30;;;27.90;99.90;;;;;;5073149;28;20226;-71
2023/07/16 10:44:14;;;;;;;5.40;3.60;;;27.80;99.90;;;;;;5091103;28;20579;-75
2023/07/16 10:46:42;;;;;;;6.80;3.92;;;27.20;99.90;;;;;;5091575;28;20540;-74
2023/07/16 10:49:08;;;;;;;5.13;3.50;;;27.20;99.90;;;;;;5091429;28;20672;-75
2023/07/16 10:51:33;;;;;;;4.35;4.05;;;27.00;99.90;;;;;;5091014;28;20298;-70
2023/07/16 10:53:59;;;;;;;4.57;4.13;;;26.70;99.90;;;;;;5108631;28;20217;-73
2023/07/16 10:56:28;;;;;;;4.32;3.92;;;27.00;99.90;;;;;;5111560;28;20236;-73
2023/07/16 10:58:53;;;;;;;5.05;3.85;;;27.60;99.90;;;;;;5111145;28;20271;-73
2023/07/16 11:01:20;;;;;;;5.78;3.38;;;27.90;99.90;;;;;;5111166;28;20637;-74
2023/07/16 11:03:45;;;;;;;3.95;3.60;;;28.00;99.90;;;;;;5110723;28;20180;-73
2023/07/16 11:06:11;;;;;;;6.45;4.13;;;28.10;99.90;;;;;;5092998;28;20540;-74
2023/07/16 11:08:37;;;;;;;4.28;3.88;;;28.40;99.90;;;;;;5110957;28;20175;-70
2023/07/16 11:11:03;;;;;;;4.78;4.10;;;28.10;99.90;;;;;;5111171;28;20205;-73
2023/07/16 11:13:30;;;;;;;4.70;3.60;;;27.40;99.90;;;;;;5111160;28;20586;-73
2023/07/16 11:15:56;;;;;;;5.85;5.00;;;27.00;99.90;;;;;;5092848;28;20564;-73
2023/07/16 11:18:24;;;;;;;4.10;3.60;;;26.70;99.90;;;;;;5110393;28;20709;-73
2023/07/16 11:20:53;;;;;;;4.05;3.45;;;27.10;99.90;;;;;;5114747;28;20207;-72
2023/07/16 11:23:19;;;;;;;7.60;3.88;;;27.40;99.90;;;;;;5114510;28;20218;-74
2023/07/16 11:25:52;;;;;;;4.63;3.75;;;27.80;99.90;;;;;;5114537;28;20562;-73
2023/07/16 11:28:17;;;;;;;4.32;3.92;;;27.90;99.90;;;;;;5114829;28;20536;-73
2023/07/16 11:30:43;;;;;;;3.92;3.50;;;28.20;99.90;;;;;;5114655;28;20204;-73
2023/07/16 11:33:12;;;;;;;4.05;3.72;;;28.70;99.90;;;;;;5114191;28;20176;-71
2023/07/16 11:35:39;;;;;;;5.20;3.88;;;28.80;99.90;;;;;;5114535;28;20173;-74
2023/07/16 11:38:08;;;;;;;5.18;3.65;;;28.60;99.40;;;;;;5114492;28;20177;-72
2023/07/16 11:40:35;;;;;;;4.25;3.85;;;28.70;99.90;;;;;;5114505;28;20573;-74
2023/07/16 11:43:11;;;;;;;5.05;4.03;;;28.60;99.80;;;;;;5114171;28;20169;-73
2023/07/16 11:45:37;;;;;;;5.30;4.15;;;28.20;99.60;;;;;;5114064;28;20250;-69
2023/07/16 11:48:03;;;;;;;4.53;3.80;;;28.10;99.80;;;;;;5094677;28;20280;-74
2023/07/16 11:50:30;;;;;;;4.95;4.50;;;28.00;99.90;;;;;;5096043;28;20714;-72
2023/07/16 11:52:58;;;;;;;3.38;3.15;;;27.70;99.90;;;;;;5113906;28;20260;-72
2023/07/16 11:55:24;;;;;;;5.22;3.75;;;27.50;99.90;;;;;;5114437;28;20160;-72
2023/07/16 11:57:50;;;;;;;3.60;3.28;;;27.30;99.90;;;;;;5114323;28;20264;-72
2023/07/16 12:00:17;;;;;;;4.18;3.78;;;27.10;99.90;;;;;;5113885;28;20208;-73
2023/07/16 12:02:43;;;;;;;5.57;4.68;;;27.00;99.90;;;;;;5113957;28;20187;-73
2023/07/16 12:05:09;;;;;;;4.28;3.85;;;27.40;99.90;;;;;;5114052;28;20169;-72
2023/07/16 12:07:38;;;;;;;4.95;4.47;;;27.70;99.90;;;;;;5113945;28;20176;-73
2023/07/16 12:10:06;;;;;;;7.00;3.88;;;27.80;99.90;;;;;;5113625;28;20269;-72
2023/07/16 12:12:32;;;;;;;4.88;4.45;;;28.30;99.90;;;;;;5113039;28;20573;-72
2023/07/16 12:14:57;;;;;;;4.63;4.10;;;28.60;99.90;;;;;;5113174;28;20165;-72
2023/07/16 12:17:23;;;;;;;4.07;3.75;;;28.30;99.00;;;;;;5113339;28;20497;-73
2023/07/16 12:19:49;;;;;;;4.13;3.80;;;28.00;99.90;;;;;;5099209;28;20213;-74
2023/07/16 12:22:17;;;;;;;5.05;3.65;;;28.10;99.90;;;;;;5093026;28;20184;-74
2023/07/16 12:24:43;;;;;;;4.95;4.55;;;28.10;99.20;;;;;;5093018;28;20188;-72
2023/07/16 12:27:09;;;;;;;6.47;4.63;;;28.00;99.90;;;;;;5093308;28;20177;-72
2023/07/16 12:29:34;;;;;;;5.30;4.57;;;27.80;99.90;;;;;;5092566;28;20236;-71
2023/07/16 12:32:00;;;;;;;6.05;4.40;;;27.40;99.90;;;;;;5092704;28;20173;-72
2023/07/16 12:34:25;;;;;;;6.10;4.72;;;27.00;99.90;;;;;;5092827;28;20724;-72
2023/07/16 12:36:51;;;;;;;5.55;4.43;;;27.10;99.90;;;;;;5074935;28;20177;-73
2023/07/16 12:39:17;;;;;;;8.63;4.78;;;27.30;99.90;;;;;;5092816;28;20280;-72
2023/07/16 12:41:46;;;;;;;6.13;4.05;;;27.60;99.90;;;;;;5092725;28;20173;-72
2023/07/16 12:44:12;;;;;;;4.32;3.92;;;27.90;99.60;;;;;;5092548;28;20399;-72